»·PEaware :: DAL816 KSLC-KGPI

DAL816 :: KSLC-KGPI

FLIGHT INFORMATION

Flight Status: Arrived
Operator:
Delta Air Lines
More flights by this operator :: More flights under this callsign
Pilot: Anonymous 28048 (28048)
Aircraft: AIRBUS A319
(A319)
More flights by this aircraft type
Origin: KSLC Salt Lake City Intl
United States
Destination: KGPI Glacier Park Intl
United States
More flights between these airports :: More routes between these airports
Route: RUGGD1 HOLTR DBS MSO
File this flight plan on PilotEdge
Remarks:
Altitude:
(Current/Filed)
38,000ft
Speed:
(Current/Filed)
450kts
Departed: 13-Mar-20 08:40 PM
Arrived: 13-Mar-20 09:57 PM
Distance/Time
Traveled:
461nm/1:17
Distance/Time
To Go:
Arrived

Flight Plot

Page will automatically refresh every two minutes.

Flight plan parsing failed; only flown route is shown


Map Options




Map Legend


Flown Route
Filed Route
Departure Airport
Arrival Airport
Navaid (VOR, NDB)
Fix

Horizontal Profiles

Position Reports

Time Latitude Longitude Heading Altitude Ground
Speed
13-Mar-20 20:14 40.788471 -111.985398 71 4241ft 0kts
13-Mar-20 20:16 40.788471 -111.985398 71 4241ft 0kts
13-Mar-20 20:16 40.788471 -111.985398 71 4241ft 0kts
13-Mar-20 20:17 40.788471 -111.985398 71 4241ft 0kts
13-Mar-20 20:18 40.788471 -111.985398 71 4241ft 0kts
13-Mar-20 20:19 40.788471 -111.985398 71 4241ft 0kts
13-Mar-20 20:20 40.788471 -111.985398 71 4241ft 0kts
13-Mar-20 20:21 40.788471 -111.985398 71 4241ft 0kts
13-Mar-20 20:22 40.788471 -111.985398 71 4241ft 0kts
13-Mar-20 20:23 40.788471 -111.985398 71 4241ft 0kts
13-Mar-20 20:24 40.788471 -111.985398 71 4241ft 0kts
13-Mar-20 20:25 40.788471 -111.985398 71 4241ft 0kts
13-Mar-20 20:26 40.788471 -111.985398 71 4241ft 0kts
13-Mar-20 20:27 40.788408 -111.985644 71 4241ft 2kts
13-Mar-20 20:28 40.788077 -111.986375 349 4241ft 0kts
13-Mar-20 20:29 40.788077 -111.986375 349 4241ft 0kts
13-Mar-20 20:30 40.788078 -111.986375 349 4241ft 0kts
13-Mar-20 20:31 40.788078 -111.986375 349 4241ft 0kts
13-Mar-20 20:32 40.790158 -111.986184 0 4241ft 17kts
13-Mar-20 20:33 40.791296 -111.989868 268 4241ft 16kts
13-Mar-20 20:34 40.791904 -111.994305 356 4241ft 10kts
13-Mar-20 20:35 40.798730 -111.995092 353 4241ft 35kts
13-Mar-20 20:36 40.808222 -111.996303 320 4241ft 17kts
13-Mar-20 20:37 40.807814 -111.997994 246 4241ft 0kts
13-Mar-20 20:38 40.807173 -111.999203 177 4241ft 7kts
13-Mar-20 20:39 40.787744 -111.996976 172 4435ft 158kts
13-Mar-20 20:40 40.770308 -112.041449 304 6230ft 209kts
13-Mar-20 20:41 40.828749 -112.087421 331 8439ft 274kts
13-Mar-20 20:42 40.907131 -112.080583 19 11320ft 314kts
13-Mar-20 20:43 40.997041 -112.039329 15 13264ft 370kts
13-Mar-20 20:44 41.073737 -111.950848 65 16017ft 393kts
13-Mar-20 20:45 41.118902 -111.815963 57 18433ft 407kts
13-Mar-20 20:46 41.214482 -111.747105 5 20530ft 409kts
13-Mar-20 20:47 41.328977 -111.722370 7 22450ft 423kts
13-Mar-20 20:48 41.445090 -111.686400 13 24201ft 436kts
13-Mar-20 20:49 41.563116 -111.639380 13 25732ft 449kts
13-Mar-20 20:50 41.685001 -111.591631 12 27196ft 461kts
13-Mar-20 20:51 41.809811 -111.544400 6 28578ft 469kts
13-Mar-20 20:52 41.940037 -111.515494 4 29903ft 479kts
13-Mar-20 20:53 42.071036 -111.485468 4 31685ft 478kts
13-Mar-20 20:54 42.202371 -111.455726 4 33467ft 476kts
13-Mar-20 20:55 42.331415 -111.444942 338 35022ft 452kts
13-Mar-20 20:56 42.449925 -111.497365 334 36507ft 447kts
13-Mar-20 20:57 42.568860 -111.546694 334 37749ft 446kts
13-Mar-20 20:58 42.686897 -111.597291 334 37805ft 445kts
13-Mar-20 20:59 42.804802 -111.647564 334 37798ft 446kts
13-Mar-20 21:00 42.923307 -111.698374 334 37784ft 446kts
13-Mar-20 21:01 43.041791 -111.749399 334 37708ft 447kts
13-Mar-20 21:02 43.160749 -111.800818 334 37708ft 447kts
13-Mar-20 21:03 43.279510 -111.852383 334 37701ft 448kts
13-Mar-20 21:04 43.398288 -111.904151 333 37714ft 449kts
13-Mar-20 21:05 43.517376 -111.956238 333 37714ft 449kts
13-Mar-20 21:06 43.636854 -112.008750 333 37722ft 449kts
13-Mar-20 21:07 43.755933 -112.061299 333 37697ft 451kts
13-Mar-20 21:08 43.875913 -112.114459 333 37732ft 451kts
13-Mar-20 21:09 43.994970 -112.167468 333 37783ft 450kts
13-Mar-20 21:10 44.113387 -112.224210 327 37786ft 443kts
13-Mar-20 21:11 44.225027 -112.295583 326 37752ft 442kts
13-Mar-20 21:12 44.337147 -112.366256 326 37741ft 442kts
13-Mar-20 21:13 44.448622 -112.437328 326 37790ft 441kts
13-Mar-20 21:14 44.560695 -112.508941 326 37790ft 441kts
13-Mar-20 21:15 44.672185 -112.580505 326 37787ft 441kts
13-Mar-20 21:16 44.783434 -112.652235 326 37764ft 440kts
13-Mar-20 21:17 44.894874 -112.724365 326 37779ft 440kts
13-Mar-20 21:18 45.006379 -112.796867 326 37805ft 440kts
13-Mar-20 21:19 45.117180 -112.869174 326 37802ft 439kts
13-Mar-20 21:20 45.228163 -112.942011 326 37736ft 438kts
13-Mar-20 21:21 45.338562 -113.014669 325 37734ft 435kts
13-Mar-20 21:22 45.447278 -113.086523 325 37148ft 425kts
13-Mar-20 21:23 45.555765 -113.158787 325 33824ft 438kts
13-Mar-20 21:24 45.667416 -113.233108 325 30449ft 443kts
13-Mar-20 21:25 45.779042 -113.307919 326 28177ft 441kts
13-Mar-20 21:26 45.888871 -113.381878 326 27191ft 435kts
13-Mar-20 21:27 45.997828 -113.455449 326 26198ft 428kts
13-Mar-20 21:28 46.104817 -113.528078 326 25207ft 422kts
13-Mar-20 21:29 46.209820 -113.599718 326 24219ft 415kts
13-Mar-20 21:30 46.313710 -113.670882 326 23225ft 409kts
13-Mar-20 21:31 46.415960 -113.741185 327 22235ft 404kts
13-Mar-20 21:32 46.516881 -113.810816 327 21243ft 399kts
13-Mar-20 21:33 46.627048 -113.846825 345 20251ft 408kts
13-Mar-20 21:34 46.737443 -113.875960 343 19263ft 401kts
13-Mar-20 21:35 46.846483 -113.904752 344 18271ft 395kts
13-Mar-20 21:36 46.953812 -113.933522 344 17122ft 387kts
13-Mar-20 21:37 47.059548 -113.961903 346 14700ft 384kts
13-Mar-20 21:38 47.164565 -113.990135 347 13163ft 381kts
13-Mar-20 21:39 47.269324 -114.018398 348 12147ft 380kts
13-Mar-20 21:40 47.372861 -114.046491 348 11833ft 378kts
13-Mar-20 21:41 47.476520 -114.074733 348 11859ft 378kts
13-Mar-20 21:42 47.580538 -114.103173 348 11880ft 379kts
13-Mar-20 21:43 47.684386 -114.131677 348 11871ft 380kts
13-Mar-20 21:44 47.768235 -114.214176 311 11042ft 361kts
13-Mar-20 21:45 47.839103 -114.318083 316 10480ft 354kts
13-Mar-20 21:46 47.908969 -114.418357 316 9993ft 333kts
13-Mar-20 21:48 47.970167 -114.506870 317 9401ft 280kts
13-Mar-20 21:49 48.027092 -114.548723 33 8802ft 206kts
13-Mar-20 21:50 48.073052 -114.501885 37 8232ft 204kts
13-Mar-20 21:51 48.118235 -114.455218 37 7266ft 187kts
13-Mar-20 21:52 48.159581 -114.412399 37 6294ft 178kts
13-Mar-20 21:53 48.200267 -114.370180 36 5350ft 174kts
13-Mar-20 21:54 48.235557 -114.333522 35 4534ft 128kts
13-Mar-20 21:55 48.261518 -114.306480 34 3929ft 109kts
13-Mar-20 21:56 48.286549 -114.280418 32 3356ft 110kts
13-Mar-20 21:57 48.308106 -114.257966 35 2983ft 40kts
13-Mar-20 21:58 48.311686 -114.252183 202 2983ft 7kts
13-Mar-20 21:59 48.308454 -114.254076 212 2983ft 12kts
13-Mar-20 22:00 48.307509 -114.253695 125 2983ft 0kts
13-Mar-20 22:01 48.307509 -114.253695 125 2983ft 0kts

Navigation Log

Ident Type
Flight plan parsing failed, navigation log unavailable